sensor_id;sensor_type;location;lat;lon;timestamp;P1;durP1;ratioP1;P2;durP2;ratioP2
15110;SDS011;7656;51.954;7.998;2023-02-20T00:00:46;8.73;;;5.67;;
15110;SDS011;7656;51.954;7.998;2023-02-20T00:05:07;9.83;;;6.23;;
15110;SDS011;7656;51.954;7.998;2023-02-20T00:09:28;9.83;;;6.30;;
15110;SDS011;7656;51.954;7.998;2023-02-20T00:13:49;8.07;;;5.57;;
15110;SDS011;7656;51.954;7.998;2023-02-20T00:18:10;11.73;;;6.60;;
15110;SDS011;7656;51.954;7.998;2023-02-20T00:22:31;8.77;;;5.70;;
15110;SDS011;7656;51.954;7.998;2023-02-20T00:26:52;10.33;;;6.50;;
15110;SDS011;7656;51.954;7.998;2023-02-20T00:31:15;9.53;;;6.13;;
15110;SDS011;7656;51.954;7.998;2023-02-20T00:35:39;7.47;;;5.70;;
15110;SDS011;7656;51.954;7.998;2023-02-20T00:40:00;11.67;;;6.10;;
15110;SDS011;7656;51.954;7.998;2023-02-20T00:44:22;8.87;;;5.80;;
15110;SDS011;7656;51.954;7.998;2023-02-20T00:48:43;9.60;;;5.40;;
15110;SDS011;7656;51.954;7.998;2023-02-20T00:53:22;7.90;;;5.47;;
15110;SDS011;7656;51.954;7.998;2023-02-20T00:57:43;7.90;;;5.10;;
15110;SDS011;7656;51.954;7.998;2023-02-20T01:02:05;7.50;;;5.30;;
15110;SDS011;7656;51.954;7.998;2023-02-20T01:06:26;9.30;;;5.70;;
15110;SDS011;7656;51.954;7.998;2023-02-20T01:10:47;7.23;;;5.30;;
15110;SDS011;7656;51.954;7.998;2023-02-20T01:15:08;7.40;;;5.33;;
15110;SDS011;7656;51.954;7.998;2023-02-20T01:19:31;7.77;;;4.73;;
15110;SDS011;7656;51.954;7.998;2023-02-20T01:23:53;6.27;;;4.50;;
15110;SDS011;7656;51.954;7.998;2023-02-20T01:28:14;8.33;;;5.73;;
15110;SDS011;7656;51.954;7.998;2023-02-20T01:32:35;7.57;;;5.17;;
15110;SDS011;7656;51.954;7.998;2023-02-20T01:36:56;8.33;;;5.30;;
15110;SDS011;7656;51.954;7.998;2023-02-20T01:41:19;7.37;;;5.40;;
15110;SDS011;7656;51.954;7.998;2023-02-20T01:45:42;7.97;;;5.90;;
15110;SDS011;7656;51.954;7.998;2023-02-20T01:50:04;7.93;;;5.60;;
15110;SDS011;7656;51.954;7.998;2023-02-20T01:54:26;7.77;;;5.57;;
15110;SDS011;7656;51.954;7.998;2023-02-20T01:58:48;14.73;;;6.50;;
15110;SDS011;7656;51.954;7.998;2023-02-20T02:03:11;12.00;;;6.27;;
15110;SDS011;7656;51.954;7.998;2023-02-20T02:07:36;9.30;;;6.10;;
15110;SDS011;7656;51.954;7.998;2023-02-20T02:11:58;8.80;;;5.80;;
15110;SDS011;7656;51.954;7.998;2023-02-20T02:16:26;9.47;;;6.20;;
15110;SDS011;7656;51.954;7.998;2023-02-20T02:41:25;8.57;;;5.90;;
15110;SDS011;7656;51.954;7.998;2023-02-20T02:46:08;10.07;;;5.97;;
15110;SDS011;7656;51.954;7.998;2023-02-20T02:50:41;13.00;;;7.10;;
15110;SDS011;7656;51.954;7.998;2023-02-20T02:55:05;11.10;;;6.30;;
15110;SDS011;7656;51.954;7.998;2023-02-20T02:59:29;8.40;;;6.23;;
15110;SDS011;7656;51.954;7.998;2023-02-20T03:03:52;12.60;;;6.37;;
15110;SDS011;7656;51.954;7.998;2023-02-20T03:08:18;7.67;;;5.67;;
15110;SDS011;7656;51.954;7.998;2023-02-20T03:12:50;13.43;;;7.30;;
15110;SDS011;7656;51.954;7.998;2023-02-20T03:17:34;11.07;;;6.67;;
15110;SDS011;7656;51.954;7.998;2023-02-20T03:22:00;10.73;;;5.90;;
15110;SDS011;7656;51.954;7.998;2023-02-20T03:26:26;12.00;;;7.50;;
15110;SDS011;7656;51.954;7.998;2023-02-20T03:30:54;9.77;;;6.23;;
15110;SDS011;7656;51.954;7.998;2023-02-20T03:35:19;10.33;;;6.90;;
15110;SDS011;7656;51.954;7.998;2023-02-20T03:40:04;10.63;;;6.00;;
15110;SDS011;7656;51.954;7.998;2023-02-20T03:44:50;12.67;;;7.20;;
15110;SDS011;7656;51.954;7.998;2023-02-20T03:49:15;12.47;;;6.83;;
15110;SDS011;7656;51.954;7.998;2023-02-20T03:53:42;10.27;;;6.60;;
15110;SDS011;7656;51.954;7.998;2023-02-20T03:58:06;9.77;;;6.10;;
15110;SDS011;7656;51.954;7.998;2023-02-20T04:02:32;16.00;;;7.33;;
15110;SDS011;7656;51.954;7.998;2023-02-20T04:07:01;13.93;;;6.83;;
15110;SDS011;7656;51.954;7.998;2023-02-20T04:11:31;11.50;;;6.57;;
15110;SDS011;7656;51.954;7.998;2023-02-20T04:16:07;13.20;;;6.93;;
15110;SDS011;7656;51.954;7.998;2023-02-20T04:20:29;10.40;;;5.93;;
15110;SDS011;7656;51.954;7.998;2023-02-20T04:25:08;13.07;;;6.77;;
15110;SDS011;7656;51.954;7.998;2023-02-20T04:29:45;9.30;;;5.80;;
15110;SDS011;7656;51.954;7.998;2023-02-20T04:34:07;10.77;;;5.77;;
15110;SDS011;7656;51.954;7.998;2023-02-20T04:38:30;10.97;;;6.17;;
15110;SDS011;7656;51.954;7.998;2023-02-20T04:42:52;10.50;;;5.90;;
15110;SDS011;7656;51.954;7.998;2023-02-20T04:47:16;10.83;;;6.23;;
15110;SDS011;7656;51.954;7.998;2023-02-20T04:51:38;13.17;;;6.27;;
15110;SDS011;7656;51.954;7.998;2023-02-20T04:55:59;12.37;;;5.77;;
15110;SDS011;7656;51.954;7.998;2023-02-20T05:00:21;9.77;;;6.37;;
15110;SDS011;7656;51.954;7.998;2023-02-20T05:04:43;13.37;;;6.63;;
15110;SDS011;7656;51.954;7.998;2023-02-20T05:09:04;11.87;;;6.77;;
15110;SDS011;7656;51.954;7.998;2023-02-20T05:13:28;9.63;;;5.87;;
15110;SDS011;7656;51.954;7.998;2023-02-20T05:17:50;11.70;;;6.20;;
15110;SDS011;7656;51.954;7.998;2023-02-20T05:22:11;12.20;;;6.17;;
15110;SDS011;7656;51.954;7.998;2023-02-20T05:26:38;8.50;;;5.53;;
15110;SDS011;7656;51.954;7.998;2023-02-20T05:30:59;11.57;;;6.20;;
15110;SDS011;7656;51.954;7.998;2023-02-20T05:35:20;13.20;;;7.47;;
15110;SDS011;7656;51.954;7.998;2023-02-20T05:39:42;10.77;;;6.23;;
15110;SDS011;7656;51.954;7.998;2023-02-20T05:44:03;14.27;;;6.67;;
15110;SDS011;7656;51.954;7.998;2023-02-20T05:48:24;12.67;;;6.47;;
15110;SDS011;7656;51.954;7.998;2023-02-20T05:52:45;13.07;;;6.93;;
15110;SDS011;7656;51.954;7.998;2023-02-20T05:57:07;13.33;;;7.33;;
15110;SDS011;7656;51.954;7.998;2023-02-20T06:01:31;15.73;;;8.23;;
15110;SDS011;7656;51.954;7.998;2023-02-20T06:05:52;15.00;;;8.00;;
15110;SDS011;7656;51.954;7.998;2023-02-20T06:10:17;16.13;;;9.13;;
15110;SDS011;7656;51.954;7.998;2023-02-20T06:14:38;12.77;;;8.73;;
15110;SDS011;7656;51.954;7.998;2023-02-20T06:19:00;16.23;;;9.60;;
15110;SDS011;7656;51.954;7.998;2023-02-20T06:23:21;16.87;;;9.50;;
15110;SDS011;7656;51.954;7.998;2023-02-20T06:27:42;15.63;;;9.37;;
15110;SDS011;7656;51.954;7.998;2023-02-20T06:32:03;16.20;;;9.77;;
15110;SDS011;7656;51.954;7.998;2023-02-20T06:36:29;20.00;;;10.27;;
15110;SDS011;7656;51.954;7.998;2023-02-20T06:40:55;18.83;;;11.23;;
15110;SDS011;7656;51.954;7.998;2023-02-20T06:45:16;21.63;;;12.00;;
15110;SDS011;7656;51.954;7.998;2023-02-20T06:49:37;17.00;;;11.43;;
15110;SDS011;7656;51.954;7.998;2023-02-20T06:53:58;17.60;;;10.70;;
15110;SDS011;7656;51.954;7.998;2023-02-20T06:58:21;17.77;;;11.90;;
15110;SDS011;7656;51.954;7.998;2023-02-20T07:02:42;17.43;;;10.90;;
15110;SDS011;7656;51.954;7.998;2023-02-20T07:07:03;17.13;;;10.30;;
15110;SDS011;7656;51.954;7.998;2023-02-20T07:11:24;15.93;;;9.90;;
15110;SDS011;7656;51.954;7.998;2023-02-20T07:15:45;16.53;;;10.37;;
15110;SDS011;7656;51.954;7.998;2023-02-20T07:20:06;15.57;;;9.67;;
15110;SDS011;7656;51.954;7.998;2023-02-20T07:24:29;13.83;;;9.53;;
15110;SDS011;7656;51.954;7.998;2023-02-20T07:28:50;12.27;;;8.80;;
15110;SDS011;7656;51.954;7.998;2023-02-20T07:33:13;18.63;;;9.73;;
15110;SDS011;7656;51.954;7.998;2023-02-20T07:37:36;16.57;;;9.03;;
15110;SDS011;7656;51.954;7.998;2023-02-20T07:41:57;12.33;;;9.23;;
15110;SDS011;7656;51.954;7.998;2023-02-20T07:46:37;13.93;;;9.47;;
15110;SDS011;7656;51.954;7.998;2023-02-20T07:50:58;13.80;;;9.10;;
15110;SDS011;7656;51.954;7.998;2023-02-20T07:55:19;18.87;;;9.73;;
15110;SDS011;7656;51.954;7.998;2023-02-20T07:59:40;15.57;;;9.70;;
15110;SDS011;7656;51.954;7.998;2023-02-20T08:04:01;14.70;;;9.43;;
15110;SDS011;7656;51.954;7.998;2023-02-20T08:08:23;13.30;;;8.67;;
15110;SDS011;7656;51.954;7.998;2023-02-20T08:12:45;15.93;;;10.03;;
15110;SDS011;7656;51.954;7.998;2023-02-20T08:17:07;15.83;;;10.23;;
15110;SDS011;7656;51.954;7.998;2023-02-20T08:21:28;15.10;;;10.50;;
15110;SDS011;7656;51.954;7.998;2023-02-20T08:25:49;16.70;;;11.43;;
15110;SDS011;7656;51.954;7.998;2023-02-20T08:30:12;18.90;;;11.60;;
15110;SDS011;7656;51.954;7.998;2023-02-20T08:34:37;18.50;;;11.13;;
15110;SDS011;7656;51.954;7.998;2023-02-20T08:38:58;22.53;;;12.40;;
15110;SDS011;7656;51.954;7.998;2023-02-20T08:43:19;23.23;;;12.47;;
15110;SDS011;7656;51.954;7.998;2023-02-20T08:47:41;21.23;;;12.30;;
15110;SDS011;7656;51.954;7.998;2023-02-20T08:52:02;20.97;;;12.07;;
15110;SDS011;7656;51.954;7.998;2023-02-20T08:56:25;20.47;;;11.40;;
15110;SDS011;7656;51.954;7.998;2023-02-20T09:00:46;21.53;;;11.60;;
15110;SDS011;7656;51.954;7.998;2023-02-20T09:05:08;19.87;;;10.97;;
15110;SDS011;7656;51.954;7.998;2023-02-20T09:09:29;17.00;;;9.87;;
15110;SDS011;7656;51.954;7.998;2023-02-20T09:13:50;20.20;;;11.03;;
15110;SDS011;7656;51.954;7.998;2023-02-20T09:18:13;19.23;;;10.30;;
15110;SDS011;7656;51.954;7.998;2023-02-20T09:22:34;17.73;;;10.13;;
15110;SDS011;7656;51.954;7.998;2023-02-20T09:26:56;19.60;;;10.23;;
15110;SDS011;7656;51.954;7.998;2023-02-20T09:31:17;15.50;;;9.30;;
15110;SDS011;7656;51.954;7.998;2023-02-20T09:35:38;24.00;;;10.73;;
15110;SDS011;7656;51.954;7.998;2023-02-20T09:39:59;18.30;;;9.47;;
15110;SDS011;7656;51.954;7.998;2023-02-20T09:44:24;17.93;;;10.33;;
15110;SDS011;7656;51.954;7.998;2023-02-20T10:03:25;23.03;;;11.13;;
15110;SDS011;7656;51.954;7.998;2023-02-20T10:08:08;18.70;;;11.23;;
15110;SDS011;7656;51.954;7.998;2023-02-20T10:21:49;21.27;;;12.30;;
15110;SDS011;7656;51.954;7.998;2023-02-20T10:26:22;19.37;;;12.03;;
15110;SDS011;7656;51.954;7.998;2023-02-20T10:35:42;19.57;;;11.77;;
15110;SDS011;7656;51.954;7.998;2023-02-20T10:40:22;18.23;;;9.53;;
15110;SDS011;7656;51.954;7.998;2023-02-20T10:45:26;17.50;;;10.10;;
15110;SDS011;7656;51.954;7.998;2023-02-20T10:50:02;16.43;;;10.13;;
15110;SDS011;7656;51.954;7.998;2023-02-20T10:59:18;20.47;;;10.10;;
15110;SDS011;7656;51.954;7.998;2023-02-20T11:04:00;18.37;;;10.90;;
15110;SDS011;7656;51.954;7.998;2023-02-20T11:08:26;19.47;;;9.90;;
15110;SDS011;7656;51.954;7.998;2023-02-20T11:12:47;16.83;;;9.60;;
15110;SDS011;7656;51.954;7.998;2023-02-20T11:17:21;18.47;;;9.57;;
15110;SDS011;7656;51.954;7.998;2023-02-20T11:21:47;15.00;;;10.03;;
15110;SDS011;7656;51.954;7.998;2023-02-20T11:30:41;16.17;;;10.97;;
15110;SDS011;7656;51.954;7.998;2023-02-20T11:35:11;17.50;;;10.97;;
15110;SDS011;7656;51.954;7.998;2023-02-20T11:39:46;15.30;;;9.77;;
15110;SDS011;7656;51.954;7.998;2023-02-20T11:53:26;17.50;;;9.30;;
15110;SDS011;7656;51.954;7.998;2023-02-20T11:57:51;13.67;;;8.27;;
15110;SDS011;7656;51.954;7.998;2023-02-20T12:06:40;13.67;;;8.27;;
15110;SDS011;7656;51.954;7.998;2023-02-20T12:15:34;13.07;;;8.30;;
15110;SDS011;7656;51.954;7.998;2023-02-20T12:24:34;12.53;;;8.17;;
15110;SDS011;7656;51.954;7.998;2023-02-20T12:38:49;14.10;;;8.00;;
15110;SDS011;7656;51.954;7.998;2023-02-20T12:43:42;11.60;;;6.90;;
15110;SDS011;7656;51.954;7.998;2023-02-20T12:57:42;11.10;;;6.33;;
15110;SDS011;7656;51.954;7.998;2023-02-20T13:02:31;11.83;;;7.60;;
15110;SDS011;7656;51.954;7.998;2023-02-20T13:07:04;10.93;;;7.23;;
15110;SDS011;7656;51.954;7.998;2023-02-20T13:11:35;15.03;;;7.47;;
15110;SDS011;7656;51.954;7.998;2023-02-20T13:20:38;13.83;;;7.33;;
15110;SDS011;7656;51.954;7.998;2023-02-20T13:29:59;10.90;;;6.60;;
15110;SDS011;7656;51.954;7.998;2023-02-20T13:34:37;13.23;;;7.73;;
15110;SDS011;7656;51.954;7.998;2023-02-20T13:43:41;12.53;;;7.53;;
15110;SDS011;7656;51.954;7.998;2023-02-20T13:52:48;12.97;;;7.73;;
15110;SDS011;7656;51.954;7.998;2023-02-20T13:57:16;12.67;;;7.93;;
15110;SDS011;7656;51.954;7.998;2023-02-20T14:01:54;12.87;;;7.63;;
15110;SDS011;7656;51.954;7.998;2023-02-20T14:06:23;15.23;;;7.20;;
15110;SDS011;7656;51.954;7.998;2023-02-20T14:10:44;11.10;;;6.80;;
15110;SDS011;7656;51.954;7.998;2023-02-20T14:15:08;9.63;;;6.23;;
15110;SDS011;7656;51.954;7.998;2023-02-20T14:19:29;13.83;;;7.33;;
15110;SDS011;7656;51.954;7.998;2023-02-20T14:23:51;10.60;;;6.67;;
15110;SDS011;7656;51.954;7.998;2023-02-20T14:28:13;10.80;;;7.57;;
15110;SDS011;7656;51.954;7.998;2023-02-20T14:32:35;12.00;;;7.40;;
15110;SDS011;7656;51.954;7.998;2023-02-20T14:41:34;13.93;;;7.73;;
15110;SDS011;7656;51.954;7.998;2023-02-20T14:45:58;11.93;;;6.93;;
15110;SDS011;7656;51.954;7.998;2023-02-20T14:50:26;12.93;;;7.17;;
15110;SDS011;7656;51.954;7.998;2023-02-20T14:54:57;13.60;;;7.80;;
15110;SDS011;7656;51.954;7.998;2023-02-20T14:59:30;13.60;;;7.60;;
15110;SDS011;7656;51.954;7.998;2023-02-20T15:04:01;15.27;;;7.67;;
15110;SDS011;7656;51.954;7.998;2023-02-20T15:08:33;12.87;;;7.40;;
15110;SDS011;7656;51.954;7.998;2023-02-20T15:12:58;12.37;;;7.50;;
15110;SDS011;7656;51.954;7.998;2023-02-20T15:17:32;11.63;;;6.97;;
15110;SDS011;7656;51.954;7.998;2023-02-20T15:21:57;12.33;;;7.03;;
15110;SDS011;7656;51.954;7.998;2023-02-20T15:26:25;12.07;;;7.53;;
15110;SDS011;7656;51.954;7.998;2023-02-20T15:31:26;8.97;;;7.23;;
15110;SDS011;7656;51.954;7.998;2023-02-20T15:35:43;15.03;;;8.03;;
15110;SDS011;7656;51.954;7.998;2023-02-20T15:40:24;15.47;;;7.90;;
15110;SDS011;7656;51.954;7.998;2023-02-20T15:44:50;14.57;;;8.67;;
15110;SDS011;7656;51.954;7.998;2023-02-20T15:49:12;16.90;;;8.43;;
15110;SDS011;7656;51.954;7.998;2023-02-20T15:53:33;15.10;;;8.10;;
15110;SDS011;7656;51.954;7.998;2023-02-20T15:57:55;14.23;;;8.13;;
15110;SDS011;7656;51.954;7.998;2023-02-20T16:02:19;13.83;;;8.83;;
15110;SDS011;7656;51.954;7.998;2023-02-20T16:06:42;13.57;;;7.93;;
15110;SDS011;7656;51.954;7.998;2023-02-20T16:11:04;12.23;;;8.13;;
15110;SDS011;7656;51.954;7.998;2023-02-20T16:15:26;15.63;;;9.93;;
15110;SDS011;7656;51.954;7.998;2023-02-20T16:19:47;15.83;;;8.63;;
15110;SDS011;7656;51.954;7.998;2023-02-20T16:24:08;18.43;;;10.53;;
15110;SDS011;7656;51.954;7.998;2023-02-20T16:28:30;16.70;;;9.93;;
15110;SDS011;7656;51.954;7.998;2023-02-20T16:32:51;20.07;;;10.30;;
15110;SDS011;7656;51.954;7.998;2023-02-20T16:37:13;16.03;;;10.03;;
15110;SDS011;7656;51.954;7.998;2023-02-20T16:41:35;18.30;;;10.33;;
15110;SDS011;7656;51.954;7.998;2023-02-20T16:45:58;16.03;;;10.67;;
15110;SDS011;7656;51.954;7.998;2023-02-20T16:50:21;18.90;;;11.40;;
15110;SDS011;7656;51.954;7.998;2023-02-20T16:54:50;15.23;;;9.07;;
15110;SDS011;7656;51.954;7.998;2023-02-20T16:59:14;16.30;;;9.60;;
15110;SDS011;7656;51.954;7.998;2023-02-20T17:03:35;16.10;;;10.63;;
15110;SDS011;7656;51.954;7.998;2023-02-20T17:07:56;19.77;;;10.10;;
15110;SDS011;7656;51.954;7.998;2023-02-20T17:12:20;19.57;;;10.67;;
15110;SDS011;7656;51.954;7.998;2023-02-20T17:16:46;16.23;;;10.93;;
15110;SDS011;7656;51.954;7.998;2023-02-20T17:21:09;17.57;;;10.37;;
15110;SDS011;7656;51.954;7.998;2023-02-20T17:25:31;14.37;;;9.80;;
15110;SDS011;7656;51.954;7.998;2023-02-20T17:29:53;16.63;;;10.13;;
15110;SDS011;7656;51.954;7.998;2023-02-20T17:34:17;18.90;;;10.07;;
15110;SDS011;7656;51.954;7.998;2023-02-20T17:38:40;18.50;;;11.13;;
15110;SDS011;7656;51.954;7.998;2023-02-20T17:43:02;16.47;;;10.47;;
15110;SDS011;7656;51.954;7.998;2023-02-20T17:47:24;19.87;;;11.17;;
15110;SDS011;7656;51.954;7.998;2023-02-20T17:51:48;15.33;;;9.00;;
15110;SDS011;7656;51.954;7.998;2023-02-20T17:56:12;15.83;;;10.60;;
15110;SDS011;7656;51.954;7.998;2023-02-20T18:00:35;17.80;;;10.70;;
15110;SDS011;7656;51.954;7.998;2023-02-20T18:04:56;18.60;;;10.60;;
15110;SDS011;7656;51.954;7.998;2023-02-20T18:09:17;19.23;;;11.40;;
15110;SDS011;7656;51.954;7.998;2023-02-20T18:13:38;19.97;;;11.33;;
15110;SDS011;7656;51.954;7.998;2023-02-20T18:18:00;20.60;;;10.80;;
15110;SDS011;7656;51.954;7.998;2023-02-20T18:22:21;25.83;;;13.10;;
15110;SDS011;7656;51.954;7.998;2023-02-20T18:26:42;19.43;;;11.17;;
15110;SDS011;7656;51.954;7.998;2023-02-20T18:31:04;20.27;;;11.70;;
15110;SDS011;7656;51.954;7.998;2023-02-20T18:35:25;21.47;;;12.47;;
15110;SDS011;7656;51.954;7.998;2023-02-20T18:39:46;25.90;;;13.43;;
15110;SDS011;7656;51.954;7.998;2023-02-20T18:44:07;24.53;;;12.83;;
15110;SDS011;7656;51.954;7.998;2023-02-20T18:48:28;34.73;;;14.43;;
15110;SDS011;7656;51.954;7.998;2023-02-20T18:52:49;25.73;;;14.93;;
15110;SDS011;7656;51.954;7.998;2023-02-20T18:57:10;24.53;;;13.53;;
15110;SDS011;7656;51.954;7.998;2023-02-20T19:01:31;28.27;;;15.33;;
15110;SDS011;7656;51.954;7.998;2023-02-20T19:05:53;25.20;;;14.33;;
15110;SDS011;7656;51.954;7.998;2023-02-20T19:10:17;30.60;;;14.67;;
15110;SDS011;7656;51.954;7.998;2023-02-20T19:14:43;25.20;;;14.43;;
15110;SDS011;7656;51.954;7.998;2023-02-20T19:19:04;25.60;;;15.80;;
15110;SDS011;7656;51.954;7.998;2023-02-20T19:23:27;22.90;;;13.57;;
15110;SDS011;7656;51.954;7.998;2023-02-20T19:27:49;25.03;;;14.50;;
15110;SDS011;7656;51.954;7.998;2023-02-20T19:32:10;26.57;;;14.53;;
15110;SDS011;7656;51.954;7.998;2023-02-20T19:36:32;26.63;;;14.73;;
15110;SDS011;7656;51.954;7.998;2023-02-20T19:40:53;26.87;;;15.10;;
15110;SDS011;7656;51.954;7.998;2023-02-20T19:45:14;24.33;;;14.07;;
15110;SDS011;7656;51.954;7.998;2023-02-20T19:49:35;30.50;;;15.10;;
15110;SDS011;7656;51.954;7.998;2023-02-20T19:53:58;29.60;;;15.17;;
15110;SDS011;7656;51.954;7.998;2023-02-20T19:58:19;30.83;;;17.60;;
15110;SDS011;7656;51.954;7.998;2023-02-20T20:02:40;25.97;;;14.70;;
15110;SDS011;7656;51.954;7.998;2023-02-20T20:07:01;27.93;;;14.77;;
15110;SDS011;7656;51.954;7.998;2023-02-20T20:11:22;32.13;;;16.50;;
15110;SDS011;7656;51.954;7.998;2023-02-20T20:15:43;29.40;;;14.87;;
15110;SDS011;7656;51.954;7.998;2023-02-20T20:20:06;34.80;;;15.80;;
15110;SDS011;7656;51.954;7.998;2023-02-20T20:24:30;31.37;;;15.13;;
15110;SDS011;7656;51.954;7.998;2023-02-20T20:28:51;27.13;;;16.03;;
15110;SDS011;7656;51.954;7.998;2023-02-20T20:33:12;29.20;;;14.77;;
15110;SDS011;7656;51.954;7.998;2023-02-20T20:37:34;30.77;;;16.07;;
15110;SDS011;7656;51.954;7.998;2023-02-20T20:41:55;26.73;;;14.83;;
15110;SDS011;7656;51.954;7.998;2023-02-20T20:46:16;26.10;;;15.27;;
15110;SDS011;7656;51.954;7.998;2023-02-20T20:50:37;34.47;;;15.93;;
15110;SDS011;7656;51.954;7.998;2023-02-20T20:54:58;29.17;;;15.53;;
15110;SDS011;7656;51.954;7.998;2023-02-20T20:59:24;27.43;;;15.87;;
15110;SDS011;7656;51.954;7.998;2023-02-20T21:03:45;30.43;;;15.57;;
15110;SDS011;7656;51.954;7.998;2023-02-20T21:08:06;30.20;;;17.27;;
15110;SDS011;7656;51.954;7.998;2023-02-20T21:12:27;30.83;;;16.93;;
15110;SDS011;7656;51.954;7.998;2023-02-20T21:16:48;29.53;;;16.10;;
15110;SDS011;7656;51.954;7.998;2023-02-20T21:21:09;28.33;;;16.20;;
15110;SDS011;7656;51.954;7.998;2023-02-20T21:25:31;27.17;;;15.23;;
15110;SDS011;7656;51.954;7.998;2023-02-20T21:29:52;34.20;;;16.57;;
15110;SDS011;7656;51.954;7.998;2023-02-20T21:34:13;26.33;;;15.57;;
15110;SDS011;7656;51.954;7.998;2023-02-20T21:38:37;29.27;;;16.37;;
15110;SDS011;7656;51.954;7.998;2023-02-20T21:42:59;27.10;;;15.83;;
15110;SDS011;7656;51.954;7.998;2023-02-20T21:47:39;28.00;;;16.10;;
15110;SDS011;7656;51.954;7.998;2023-02-20T21:52:00;29.30;;;15.60;;
15110;SDS011;7656;51.954;7.998;2023-02-20T21:56:23;28.23;;;15.43;;
15110;SDS011;7656;51.954;7.998;2023-02-20T22:00:47;32.60;;;15.80;;
15110;SDS011;7656;51.954;7.998;2023-02-20T22:05:08;30.77;;;15.50;;
15110;SDS011;7656;51.954;7.998;2023-02-20T22:09:30;28.17;;;15.33;;
15110;SDS011;7656;51.954;7.998;2023-02-20T22:14:10;31.47;;;15.10;;
15110;SDS011;7656;51.954;7.998;2023-02-20T22:18:50;24.40;;;13.87;;
15110;SDS011;7656;51.954;7.998;2023-02-20T22:23:29;28.90;;;15.27;;
15110;SDS011;7656;51.954;7.998;2023-02-20T22:28:09;26.87;;;15.17;;
15110;SDS011;7656;51.954;7.998;2023-02-20T22:32:53;27.57;;;16.10;;
15110;SDS011;7656;51.954;7.998;2023-02-20T22:37:32;29.70;;;16.23;;
15110;SDS011;7656;51.954;7.998;2023-02-20T22:42:12;30.47;;;15.50;;
15110;SDS011;7656;51.954;7.998;2023-02-20T22:46:51;26.10;;;14.27;;
15110;SDS011;7656;51.954;7.998;2023-02-20T22:51:30;29.80;;;14.33;;
15110;SDS011;7656;51.954;7.998;2023-02-20T22:56:17;31.40;;;13.47;;
15110;SDS011;7656;51.954;7.998;2023-02-20T23:00:58;21.33;;;13.90;;
15110;SDS011;7656;51.954;7.998;2023-02-20T23:05:37;26.23;;;14.53;;
15110;SDS011;7656;51.954;7.998;2023-02-20T23:10:17;28.43;;;15.13;;
15110;SDS011;7656;51.954;7.998;2023-02-20T23:14:56;26.17;;;15.83;;
15110;SDS011;7656;51.954;7.998;2023-02-20T23:19:36;25.80;;;15.23;;
15110;SDS011;7656;51.954;7.998;2023-02-20T23:24:19;26.40;;;14.77;;
15110;SDS011;7656;51.954;7.998;2023-02-20T23:28:58;28.77;;;15.53;;
15110;SDS011;7656;51.954;7.998;2023-02-20T23:33:38;28.33;;;15.70;;
15110;SDS011;7656;51.954;7.998;2023-02-20T23:38:17;24.23;;;13.97;;
15110;SDS011;7656;51.954;7.998;2023-02-20T23:42:57;27.13;;;15.17;;
15110;SDS011;7656;51.954;7.998;2023-02-20T23:47:38;25.13;;;14.70;;
15110;SDS011;7656;51.954;7.998;2023-02-20T23:52:19;29.60;;;15.37;;
15110;SDS011;7656;51.954;7.998;2023-02-20T23:56:58;24.83;;;14.20;;
